createdAt,value
2023-01-19T00:00:27.585Z,25.02
2023-01-19T00:02:55.071Z,20.75
2023-01-19T00:05:22.136Z,24.33
2023-01-19T00:07:48.611Z,26.30
2023-01-19T00:10:15.323Z,24.33
2023-01-19T00:12:41.864Z,22.42
2023-01-19T00:15:08.593Z,20.80
2023-01-19T00:17:35.049Z,19.88
2023-01-19T00:20:01.634Z,21.05
2023-01-19T00:22:28.198Z,19.33
2023-01-19T00:24:54.731Z,21.80
2023-01-19T00:27:21.163Z,20.50
2023-01-19T00:29:47.662Z,19.13
2023-01-19T00:32:14.152Z,22.27
2023-01-19T00:34:49.929Z,19.80
2023-01-19T00:37:16.947Z,19.30
2023-01-19T00:39:43.735Z,21.63
2023-01-19T00:42:31.822Z,27.45
2023-01-19T00:44:58.374Z,17.40
2023-01-19T00:47:25.395Z,19.85
2023-01-19T00:49:51.859Z,18.15
2023-01-19T00:52:18.339Z,19.85
2023-01-19T00:54:44.812Z,20.67
2023-01-19T00:57:11.260Z,22.13
2023-01-19T00:59:37.660Z,17.75
2023-01-19T01:02:04.560Z,20.75
2023-01-19T01:04:34.318Z,20.10
2023-01-19T01:07:00.831Z,19.52
2023-01-19T01:09:27.733Z,23.88
2023-01-19T01:11:54.240Z,18.33
2023-01-19T01:14:20.763Z,29.25
2023-01-19T01:16:47.356Z,15.60
2023-01-19T01:19:13.833Z,18.33
2023-01-19T01:21:40.443Z,17.40
2023-01-19T01:24:07.149Z,24.95
2023-01-19T01:26:33.613Z,15.35
2023-01-19T01:29:00.212Z,18.27
2023-01-19T01:31:26.702Z,19.52
2023-01-19T01:33:53.209Z,19.20
2023-01-19T01:36:20.832Z,19.70
2023-01-19T01:38:47.313Z,20.23
2023-01-19T01:41:13.788Z,24.60
2023-01-19T01:43:46.158Z,21.15
2023-01-19T01:46:15.456Z,18.70
2023-01-19T01:48:44.127Z,20.17
2023-01-19T01:51:25.141Z,19.98
2023-01-19T01:54:00.936Z,21.13
2023-01-19T01:56:32.426Z,21.33
2023-01-19T01:58:59.480Z,20.25
2023-01-19T02:01:44.763Z,17.52
2023-01-19T02:04:11.294Z,15.93
2023-01-19T02:06:56.377Z,19.63
2023-01-19T02:09:42.616Z,16.02
2023-01-19T02:12:27.624Z,19.90
2023-01-19T02:14:55.438Z,14.15
2023-01-19T02:17:22.151Z,15.82
2023-01-19T02:19:48.600Z,20.85
2023-01-19T02:22:18.818Z,17.27
2023-01-19T02:24:45.309Z,15.93
2023-01-19T02:27:12.348Z,19.73
2023-01-19T02:29:39.656Z,18.58
2023-01-19T02:32:06.271Z,18.30
2023-01-19T02:34:33.015Z,18.92
2023-01-19T02:37:12.964Z,18.35
2023-01-19T02:39:42.952Z,16.20
2023-01-19T02:42:12.375Z,17.95
2023-01-19T02:44:39.602Z,19.60
2023-01-19T02:47:06.158Z,30.05
2023-01-19T02:49:32.581Z,21.70
2023-01-19T02:51:59.159Z,27.98
2023-01-19T02:54:29.018Z,28.63
2023-01-19T02:57:07.832Z,23.75
2023-01-19T02:59:53.250Z,21.50
2023-01-19T03:02:19.881Z,26.83
2023-01-19T03:05:05.952Z,34.70
2023-01-19T03:07:35.505Z,26.70
2023-01-19T03:10:08.182Z,18.85
2023-01-19T03:12:45.125Z,19.83
2023-01-19T03:15:15.976Z,22.30
2023-01-19T03:17:43.249Z,19.58
2023-01-19T03:20:13.275Z,27.00
2023-01-19T03:22:39.768Z,23.92
2023-01-19T03:25:06.868Z,21.88
2023-01-19T03:27:40.705Z,22.52
2023-01-19T03:30:12.715Z,15.90
2023-01-19T03:32:44.856Z,21.85
2023-01-19T03:35:13.066Z,19.60
2023-01-19T03:37:41.417Z,20.80
2023-01-19T03:40:08.450Z,21.25
2023-01-19T03:42:35.965Z,19.48
2023-01-19T03:45:02.700Z,13.68
2023-01-19T03:47:29.321Z,16.77
2023-01-19T03:49:56.760Z,19.40
2023-01-19T03:52:27.401Z,18.27
2023-01-19T03:54:53.909Z,17.42
2023-01-19T03:57:20.367Z,21.73
2023-01-19T03:59:46.762Z,19.83
2023-01-19T04:02:13.291Z,21.60
2023-01-19T04:04:40.173Z,20.23
2023-01-19T04:07:07.506Z,23.20
2023-01-19T04:09:34.121Z,20.50
2023-01-19T04:12:01.968Z,26.52
2023-01-19T04:14:28.874Z,26.23
2023-01-19T04:16:55.353Z,26.90
2023-01-19T04:19:21.755Z,22.33
2023-01-19T04:21:49.635Z,29.73
2023-01-19T04:24:16.258Z,30.42
2023-01-19T04:26:43.218Z,27.20
2023-01-19T04:29:09.744Z,30.67
2023-01-19T04:31:36.971Z,30.10
2023-01-19T04:34:03.947Z,30.83
2023-01-19T04:36:30.395Z,32.33
2023-01-19T04:38:56.860Z,33.38
2023-01-19T04:41:23.305Z,37.75
2023-01-19T04:43:49.843Z,28.73
2023-01-19T04:46:16.520Z,30.38
2023-01-19T04:48:43.015Z,30.55
2023-01-19T04:51:09.799Z,35.67
2023-01-19T04:53:36.534Z,31.63
2023-01-19T04:56:02.976Z,30.98
2023-01-19T04:58:29.500Z,23.50
2023-01-19T05:00:55.950Z,23.20
2023-01-19T05:03:23.197Z,22.05
2023-01-19T05:05:50.905Z,20.92
2023-01-19T05:08:17.517Z,23.27
2023-01-19T05:10:44.021Z,21.42
2023-01-19T05:13:10.465Z,20.52
2023-01-19T05:15:36.950Z,22.42
2023-01-19T05:18:03.611Z,23.85
2023-01-19T05:20:30.095Z,24.70
2023-01-19T05:22:56.591Z,23.88
2023-01-19T05:25:23.045Z,31.50
2023-01-19T05:27:49.523Z,30.55
2023-01-19T05:30:16.178Z,32.03
2023-01-19T05:32:42.761Z,32.95
2023-01-19T05:35:09.473Z,31.65
2023-01-19T05:37:35.931Z,33.47
2023-01-19T05:40:02.372Z,35.47
2023-01-19T05:42:30.327Z,37.90
2023-01-19T05:44:59.548Z,34.60
2023-01-19T05:47:26.065Z,37.17
2023-01-19T05:49:52.500Z,38.22
2023-01-19T05:52:18.977Z,37.08
2023-01-19T05:54:45.459Z,35.95
2023-01-19T05:57:11.929Z,36.15
2023-01-19T05:59:38.623Z,37.85
2023-01-19T06:02:05.105Z,40.83
2023-01-19T06:04:31.552Z,41.50
2023-01-19T06:06:58.064Z,46.10
2023-01-19T06:09:24.554Z,40.65
2023-01-19T06:11:51.212Z,50.38
2023-01-19T06:14:17.761Z,43.63
2023-01-19T06:16:44.256Z,52.70
2023-01-19T06:19:10.981Z,49.42
2023-01-19T06:21:37.427Z,46.22
2023-01-19T06:24:04.052Z,49.38
2023-01-19T06:26:30.571Z,59.42
2023-01-19T06:28:57.332Z,51.50
2023-01-19T06:31:23.827Z,58.40
2023-01-19T06:33:50.309Z,47.75
2023-01-19T06:36:16.829Z,57.75
2023-01-19T06:38:43.259Z,54.10
2023-01-19T06:41:09.800Z,49.88
2023-01-19T06:43:36.223Z,51.88
2023-01-19T06:46:03.522Z,49.20
2023-01-19T06:48:30.030Z,49.58
2023-01-19T06:50:58.748Z,40.83
2023-01-19T06:53:28.017Z,43.38
2023-01-19T06:55:58.233Z,48.30
2023-01-19T06:58:25.057Z,48.17
2023-01-19T07:00:51.863Z,51.40
2023-01-19T07:03:20.875Z,50.33
2023-01-19T07:05:49.928Z,49.28
2023-01-19T07:08:16.425Z,44.65
2023-01-19T07:11:25.949Z,40.88
2023-01-19T07:13:29.356Z,39.05
2023-01-19T07:15:55.800Z,41.88
2023-01-19T07:18:22.285Z,41.38
2023-01-19T07:20:49.288Z,46.38
2023-01-19T07:23:16.039Z,48.22
2023-01-19T07:25:46.551Z,44.42
2023-01-19T07:28:15.726Z,45.60
2023-01-19T07:30:46.522Z,48.78
2023-01-19T07:33:12.995Z,42.53
2023-01-19T07:35:39.476Z,51.20
2023-01-19T07:38:05.945Z,55.17
2023-01-19T07:40:33.794Z,51.85
2023-01-19T07:43:00.514Z,44.90
2023-01-19T07:45:28.055Z,60.25
2023-01-19T07:47:54.531Z,50.70
2023-01-19T07:50:24.587Z,59.58
2023-01-19T07:52:53.000Z,55.38
2023-01-19T07:55:20.463Z,53.83
2023-01-19T07:57:53.584Z,59.80
2023-01-19T08:00:22.097Z,48.67
2023-01-19T08:02:51.221Z,50.63
2023-01-19T08:05:18.200Z,51.10
2023-01-19T08:07:46.292Z,48.30
2023-01-19T08:10:14.426Z,50.70
2023-01-19T08:12:41.967Z,49.67
2023-01-19T08:15:09.154Z,43.97
2023-01-19T08:17:35.740Z,49.53
2023-01-19T08:20:02.402Z,49.40
2023-01-19T08:22:28.848Z,43.50
2023-01-19T08:24:55.371Z,50.53
2023-01-19T08:27:21.820Z,47.63
2023-01-19T08:29:48.241Z,46.25
2023-01-19T08:32:14.889Z,43.03
2023-01-19T08:34:41.568Z,44.72
2023-01-19T08:37:08.074Z,47.00
2023-01-19T08:39:34.569Z,42.78
2023-01-19T08:42:00.983Z,48.80
2023-01-19T08:44:27.679Z,50.17
2023-01-19T08:46:54.827Z,44.25
2023-01-19T08:49:21.234Z,42.22
2023-01-19T08:51:48.179Z,42.05
2023-01-19T08:54:17.070Z,40.63
2023-01-19T08:56:44.075Z,42.80
2023-01-19T08:59:12.942Z,41.95
2023-01-19T09:01:39.997Z,39.03
2023-01-19T09:04:06.608Z,42.05
2023-01-19T09:06:33.192Z,37.25
2023-01-19T09:08:59.794Z,38.42
2023-01-19T09:11:27.596Z,37.38
2023-01-19T09:13:54.166Z,46.45
2023-01-19T09:16:20.902Z,47.08
2023-01-19T09:18:47.335Z,41.38
2023-01-19T09:21:15.106Z,49.03
2023-01-19T09:23:41.596Z,46.97
2023-01-19T09:26:08.119Z,41.13
2023-01-19T09:28:34.690Z,55.53
2023-01-19T09:31:04.538Z,49.15
2023-01-19T09:33:31.003Z,52.28
2023-01-19T09:35:57.769Z,42.38
2023-01-19T09:38:25.848Z,56.35
2023-01-19T09:40:54.360Z,50.78
2023-01-19T09:43:59.550Z,48.35
2023-01-19T09:46:33.479Z,44.60
2023-01-19T09:49:04.825Z,43.78
2023-01-19T09:51:39.441Z,47.40
2023-01-19T09:54:29.899Z,53.70
2023-01-19T09:56:56.373Z,42.35
2023-01-19T09:59:28.832Z,45.10
2023-01-19T10:01:55.333Z,39.88
2023-01-19T10:04:29.561Z,39.13
2023-01-19T10:07:16.302Z,37.55
2023-01-19T10:10:15.023Z,38.25
2023-01-19T10:12:41.451Z,37.97
2023-01-19T10:15:07.914Z,43.15
2023-01-19T10:17:57.735Z,30.75
2023-01-19T10:20:28.041Z,40.50
2023-01-19T10:22:56.075Z,35.35
2023-01-19T10:25:25.579Z,27.40
2023-01-19T10:27:52.159Z,30.10
2023-01-19T10:30:23.489Z,37.53
2023-01-19T10:32:50.631Z,37.28
2023-01-19T10:35:23.351Z,33.60
2023-01-19T10:37:50.594Z,38.77
2023-01-19T10:40:33.688Z,27.35
2023-01-19T10:43:00.768Z,36.25
2023-01-19T10:45:30.196Z,26.45
2023-01-19T10:48:04.609Z,30.80
2023-01-19T10:50:32.535Z,29.92
2023-01-19T10:53:04.022Z,33.75
2023-01-19T10:55:31.896Z,31.55
2023-01-19T10:57:59.485Z,27.15
2023-01-19T11:00:28.980Z,38.45
2023-01-19T11:02:55.485Z,28.85
2023-01-19T11:05:23.793Z,27.77
2023-01-19T11:07:50.352Z,37.42
2023-01-19T11:10:17.471Z,32.08
2023-01-19T11:12:54.501Z,29.20
2023-01-19T11:15:20.962Z,27.40
2023-01-19T11:17:50.838Z,23.20
2023-01-19T11:20:20.533Z,31.45
2023-01-19T11:22:48.757Z,31.35
2023-01-19T11:25:27.226Z,34.20
2023-01-19T11:27:53.699Z,32.95
2023-01-19T11:30:22.545Z,26.75
2023-01-19T11:32:49.439Z,32.97
2023-01-19T11:35:31.672Z,28.75
2023-01-19T11:38:13.744Z,34.40
2023-01-19T11:40:41.032Z,27.63
2023-01-19T11:43:11.153Z,26.27
2023-01-19T11:45:37.793Z,25.15
2023-01-19T11:48:05.795Z,36.40
2023-01-19T11:50:34.938Z,29.48
2023-01-19T11:53:24.237Z,24.73
2023-01-19T11:55:56.434Z,31.30
2023-01-19T11:58:23.824Z,27.13
2023-01-19T12:00:53.368Z,24.67
2023-01-19T12:03:19.856Z,33.92
2023-01-19T12:05:49.282Z,31.35
2023-01-19T12:08:18.583Z,30.38
2023-01-19T12:10:46.731Z,34.97
2023-01-19T12:13:23.404Z,30.70
2023-01-19T12:15:52.695Z,31.63
2023-01-19T12:18:24.296Z,35.75
2023-01-19T12:20:52.300Z,43.38
2023-01-19T12:23:18.707Z,32.80
2023-01-19T12:25:45.164Z,36.03
2023-01-19T12:28:14.052Z,32.08
2023-01-19T12:30:40.645Z,40.20
2023-01-19T12:33:25.960Z,37.50
2023-01-19T12:35:57.571Z,35.67
2023-01-19T12:38:35.445Z,34.47
2023-01-19T12:41:17.395Z,32.10
2023-01-19T12:43:43.844Z,36.42
2023-01-19T12:46:30.271Z,38.25
2023-01-19T12:49:04.371Z,38.65
2023-01-19T12:51:31.022Z,35.28
2023-01-19T12:53:59.668Z,37.33
2023-01-19T12:56:36.744Z,40.58
2023-01-19T12:59:04.331Z,37.67
2023-01-19T13:01:31.316Z,37.80
2023-01-19T13:04:00.315Z,34.60
2023-01-19T13:06:56.246Z,34.50
2023-01-19T13:09:25.727Z,40.95
2023-01-19T13:12:10.985Z,42.97
2023-01-19T13:14:37.955Z,36.17
2023-01-19T13:17:06.161Z,40.47
2023-01-19T13:19:36.968Z,38.80
2023-01-19T13:22:22.153Z,40.78
2023-01-19T13:25:05.070Z,35.40
2023-01-19T13:27:31.595Z,37.00
2023-01-19T13:29:58.375Z,36.15
2023-01-19T13:32:25.769Z,38.35
2023-01-19T13:34:54.623Z,34.13
2023-01-19T13:37:27.297Z,33.58
2023-01-19T13:39:54.938Z,36.60
2023-01-19T13:42:33.396Z,37.67
2023-01-19T13:45:01.132Z,30.75
2023-01-19T13:47:54.167Z,40.63
2023-01-19T13:50:20.681Z,40.85
2023-01-19T13:52:48.932Z,36.80
2023-01-19T13:55:15.799Z,32.50
2023-01-19T13:57:46.106Z,40.10
2023-01-19T14:00:12.803Z,36.47
2023-01-19T14:02:39.881Z,44.95
2023-01-19T14:05:23.268Z,33.55
2023-01-19T14:07:59.706Z,37.85
2023-01-19T14:10:26.244Z,35.50
2023-01-19T14:13:00.175Z,39.63
2023-01-19T14:15:27.295Z,32.85
2023-01-19T14:18:12.173Z,38.65
2023-01-19T14:20:38.815Z,36.90
2023-01-19T14:23:05.927Z,34.20
2023-01-19T14:25:33.813Z,35.63
2023-01-19T14:28:20.136Z,32.80
2023-01-19T14:30:56.766Z,38.28
2023-01-19T14:33:33.033Z,36.85
2023-01-19T14:36:08.523Z,39.88
2023-01-19T14:38:35.033Z,40.35
2023-01-19T14:41:01.696Z,33.35
2023-01-19T14:43:29.830Z,36.45
2023-01-19T14:45:56.394Z,38.05
2023-01-19T14:48:22.943Z,34.58
2023-01-19T14:51:02.924Z,36.72
2023-01-19T14:53:38.507Z,33.10
2023-01-19T14:56:05.963Z,32.95
2023-01-19T14:58:33.269Z,31.27
2023-01-19T15:01:00.132Z,34.25
2023-01-19T15:03:42.633Z,35.55
2023-01-19T15:06:13.507Z,32.80
2023-01-19T15:08:40.042Z,35.75
2023-01-19T15:11:26.778Z,37.60
2023-01-19T15:13:53.343Z,38.35
2023-01-19T15:16:20.305Z,35.63
2023-01-19T15:18:46.863Z,36.95
2023-01-19T15:21:19.598Z,34.10
2023-01-19T15:23:46.183Z,38.33
2023-01-19T15:26:15.566Z,37.63
2023-01-19T15:28:42.084Z,39.03
2023-01-19T15:31:11.021Z,39.10
2023-01-19T15:33:37.508Z,42.20
2023-01-19T15:36:05.421Z,39.70
2023-01-19T15:38:31.931Z,40.78
2023-01-19T15:40:58.707Z,40.67
2023-01-19T15:43:25.165Z,44.67
2023-01-19T15:45:54.664Z,42.38
2023-01-19T15:48:22.474Z,48.70
2023-01-19T15:50:48.904Z,45.90
2023-01-19T15:53:16.436Z,37.85
2023-01-19T15:55:43.072Z,46.78
2023-01-19T15:58:09.602Z,45.00
2023-01-19T16:00:36.570Z,49.35
2023-01-19T16:03:03.546Z,43.17
2023-01-19T16:05:42.551Z,46.15
2023-01-19T16:08:10.463Z,45.80
2023-01-19T16:10:37.129Z,40.67
2023-01-19T16:13:04.284Z,41.83
2023-01-19T16:15:31.150Z,58.40
2023-01-19T16:17:58.334Z,47.20
2023-01-19T16:20:24.753Z,47.70
2023-01-19T16:22:51.179Z,48.58
2023-01-19T16:25:17.685Z,43.55
2023-01-19T16:27:44.146Z,44.13
2023-01-19T16:30:11.914Z,41.92
2023-01-19T16:32:38.831Z,52.90
2023-01-19T16:35:05.559Z,46.17
2023-01-19T16:37:32.105Z,42.80
2023-01-19T16:39:58.579Z,50.03
2023-01-19T16:42:25.038Z,45.38
2023-01-19T16:44:51.496Z,44.05
2023-01-19T16:47:18.144Z,48.75
2023-01-19T16:49:44.578Z,46.65
2023-01-19T16:52:11.074Z,47.90
2023-01-19T16:54:39.400Z,45.38
2023-01-19T16:57:05.927Z,42.55
2023-01-19T16:59:32.475Z,42.45
2023-01-19T17:01:59.053Z,44.88
2023-01-19T17:04:26.513Z,47.00
2023-01-19T17:06:53.444Z,50.88
2023-01-19T17:09:19.918Z,45.20
2023-01-19T17:11:46.762Z,42.92
2023-01-19T17:14:20.309Z,46.72
2023-01-19T17:19:14.904Z,42.28
2023-01-19T17:21:41.374Z,49.30
2023-01-19T17:24:07.888Z,54.40
2023-01-19T17:26:35.020Z,49.60
2023-01-19T17:29:02.166Z,49.65
2023-01-19T17:31:28.906Z,43.25
2023-01-19T17:33:55.518Z,40.78
2023-01-19T17:36:25.208Z,41.60
2023-01-19T17:38:52.517Z,40.25
2023-01-19T17:41:20.656Z,41.42
2023-01-19T17:43:47.313Z,49.40
2023-01-19T17:46:13.803Z,44.20
2023-01-19T17:48:40.324Z,48.38
2023-01-19T17:51:09.361Z,47.15
2023-01-19T17:53:36.354Z,47.55
2023-01-19T17:56:04.076Z,51.45
2023-01-19T17:58:31.596Z,55.25
2023-01-19T18:00:58.349Z,45.47
2023-01-19T18:03:25.074Z,51.13
2023-01-19T18:05:55.729Z,48.22
2023-01-19T18:08:22.173Z,48.67
2023-01-19T18:10:55.149Z,59.25
2023-01-19T18:13:21.780Z,56.92
2023-01-19T18:15:48.401Z,56.10
2023-01-19T18:18:15.085Z,55.47
2023-01-19T18:20:44.507Z,50.38
2023-01-19T18:23:11.846Z,49.50
2023-01-19T18:25:39.670Z,51.35
2023-01-19T18:28:06.679Z,50.70
2023-01-19T18:30:36.665Z,54.08
2023-01-19T18:33:03.339Z,51.20
2023-01-19T18:35:29.877Z,45.05
2023-01-19T18:37:58.507Z,47.95
2023-01-19T18:40:25.091Z,48.55
2023-01-19T18:42:51.567Z,47.47
2023-01-19T18:45:18.091Z,50.00
2023-01-19T18:47:44.519Z,52.15
2023-01-19T18:50:12.923Z,50.25
2023-01-19T18:52:40.111Z,46.53
2023-01-19T18:55:06.820Z,49.28
2023-01-19T18:57:34.269Z,50.72
2023-01-19T19:00:00.726Z,48.95
2023-01-19T19:02:27.232Z,50.28
2023-01-19T19:04:53.830Z,48.97
2023-01-19T19:07:20.307Z,52.45
2023-01-19T19:09:46.941Z,50.95
2023-01-19T19:12:13.697Z,55.33
2023-01-19T19:14:40.389Z,54.85
2023-01-19T19:17:07.006Z,61.72
2023-01-19T19:19:33.669Z,59.30
2023-01-19T19:22:00.146Z,50.88
2023-01-19T19:24:26.668Z,59.65
2023-01-19T19:26:53.197Z,54.25
2023-01-19T19:29:23.263Z,53.03
2023-01-19T19:31:50.241Z,56.10
2023-01-19T19:34:19.171Z,53.20
2023-01-19T19:36:46.442Z,51.42
2023-01-19T19:39:13.446Z,52.85
2023-01-19T19:41:40.557Z,55.17
2023-01-19T19:44:07.431Z,55.28
2023-01-19T19:46:51.119Z,54.03
2023-01-19T19:49:24.426Z,61.20
2023-01-19T19:51:51.501Z,55.53
2023-01-19T19:54:23.300Z,55.67
2023-01-19T19:56:52.306Z,56.75
2023-01-19T19:59:19.081Z,56.38
2023-01-19T20:01:47.217Z,53.75
2023-01-19T20:04:22.981Z,62.70
2023-01-19T20:06:51.757Z,54.33
2023-01-19T20:09:18.869Z,54.45
2023-01-19T20:11:46.978Z,52.33
2023-01-19T20:14:18.736Z,54.08
2023-01-19T20:16:54.777Z,54.95
2023-01-19T20:19:21.797Z,62.58
2023-01-19T20:21:48.695Z,55.70
2023-01-19T20:24:30.904Z,55.38
2023-01-19T20:26:57.755Z,54.17
2023-01-19T20:29:30.933Z,56.92
2023-01-19T20:31:57.957Z,61.58
2023-01-19T20:34:27.087Z,53.20
2023-01-19T20:36:54.105Z,58.47
2023-01-19T20:39:21.328Z,54.63
2023-01-19T20:41:50.091Z,56.47
2023-01-19T20:44:21.438Z,50.50
2023-01-19T20:46:48.094Z,56.30
2023-01-19T20:49:14.551Z,52.05
2023-01-19T20:51:46.130Z,53.05
2023-01-19T20:54:13.520Z,55.90
2023-01-19T20:56:41.379Z,59.15
2023-01-19T20:59:08.753Z,50.97
2023-01-19T21:01:35.600Z,55.08
2023-01-19T21:04:02.190Z,50.50
2023-01-19T21:06:28.623Z,53.78
2023-01-19T21:08:55.152Z,46.88
2023-01-19T21:11:23.984Z,55.10
2023-01-19T21:13:55.419Z,51.10
2023-01-19T21:16:25.949Z,57.25
2023-01-19T21:18:52.845Z,54.45
2023-01-19T21:21:29.929Z,59.42
2023-01-19T21:23:58.126Z,61.22
2023-01-19T21:26:24.542Z,53.33
2023-01-19T21:28:51.214Z,52.67
2023-01-19T21:31:17.882Z,64.25
2023-01-19T21:33:44.338Z,68.25
2023-01-19T21:36:11.103Z,65.45
2023-01-19T21:38:38.459Z,73.22
2023-01-19T21:41:09.411Z,66.55
2023-01-19T21:43:36.666Z,61.33
2023-01-19T21:46:20.049Z,66.22
2023-01-19T21:48:46.898Z,72.95
2023-01-19T21:51:14.184Z,69.82
2023-01-19T21:53:41.036Z,65.93
2023-01-19T21:56:08.618Z,63.45
2023-01-19T21:58:35.138Z,63.13
2023-01-19T22:01:02.312Z,67.93
2023-01-19T22:03:29.002Z,68.43
2023-01-19T22:05:56.034Z,71.30
2023-01-19T22:08:23.186Z,70.20
2023-01-19T22:10:49.763Z,69.60
2023-01-19T22:13:16.202Z,69.50
2023-01-19T22:15:42.658Z,63.95
2023-01-19T22:18:09.087Z,69.53
2023-01-19T22:20:35.593Z,71.43
2023-01-19T22:23:02.083Z,68.90
2023-01-19T22:25:28.674Z,69.53
2023-01-19T22:27:55.704Z,83.40
2023-01-19T22:30:22.190Z,75.13
2023-01-19T22:32:48.736Z,73.78
2023-01-19T22:35:15.632Z,70.88
2023-01-19T22:37:42.169Z,70.30
2023-01-19T22:40:08.856Z,71.32
2023-01-19T22:42:35.322Z,67.35
2023-01-19T22:45:01.722Z,64.50
2023-01-19T22:47:28.183Z,63.47
2023-01-19T22:49:54.687Z,65.25
2023-01-19T22:52:21.142Z,60.75
2023-01-19T22:54:47.651Z,67.63
2023-01-19T22:57:14.167Z,65.32
2023-01-19T22:59:40.621Z,66.25
2023-01-19T23:02:08.715Z,69.25
2023-01-19T23:04:35.245Z,63.15
2023-01-19T23:07:01.804Z,65.85
2023-01-19T23:09:28.296Z,67.38
2023-01-19T23:11:54.749Z,65.75
2023-01-19T23:14:21.898Z,72.78
2023-01-19T23:16:48.640Z,68.72
2023-01-19T23:19:17.233Z,67.88
2023-01-19T23:21:44.210Z,76.00
2023-01-19T23:24:10.952Z,75.82
2023-01-19T23:26:40.569Z,72.20
2023-01-19T23:29:08.270Z,68.63
2023-01-19T23:31:36.045Z,73.25
2023-01-19T23:34:03.981Z,73.03
2023-01-19T23:36:31.300Z,73.18
2023-01-19T23:38:59.536Z,68.22
2023-01-19T23:41:26.422Z,71.75
2023-01-19T23:43:52.936Z,69.85
2023-01-19T23:46:19.837Z,69.10
2023-01-19T23:48:46.771Z,69.22
2023-01-19T23:51:18.444Z,70.88
2023-01-19T23:53:45.351Z,74.45
2023-01-19T23:56:13.521Z,72.35
2023-01-19T23:58:40.411Z,75.47
